Time;durP1;ratioP1;P1;durP2;ratioP2;P2;SDS_P1;SDS_P2;PMS_P1;PMS_P2;Temp;Humidity;BMP_temperature;BMP_pressure;BME280_temperature;BME280_humidity;BME280_pressure;Samples;Min_cycle;Max_cycle;Signal;HPM_P1;HPM_P2
2022/03/29 00:02:00;;;;;;;3.45;3.15;;;19.70;28.40;;;;;;5087691;28;47019;-16
2022/03/29 00:04:27;;;;;;;3.22;2.92;;;19.60;28.40;;;;;;5087458;28;49076;-17
2022/03/29 00:06:54;;;;;;;4.35;3.13;;;19.60;28.30;;;;;;5087348;28;47219;-25
2022/03/29 00:09:21;;;;;;;3.70;3.28;;;19.60;28.40;;;;;;5087440;28;46822;-24
2022/03/29 00:11:48;;;;;;;3.63;3.03;;;19.60;28.40;;;;;;5087057;27;47221;-17
2022/03/29 00:14:14;;;;;;;3.42;3.13;;;19.60;28.50;;;;;;5087208;28;48247;-26
2022/03/29 00:16:41;;;;;;;3.75;3.40;;;19.50;28.50;;;;;;5087300;28;46885;-26
2022/03/29 00:19:09;;;;;;;3.08;2.80;;;19.50;28.40;;;;;;5086823;28;46856;-26
2022/03/29 00:21:36;;;;;;;3.45;3.15;;;19.50;28.50;;;;;;5087410;28;47310;-26
2022/03/29 00:24:02;;;;;;;3.40;3.10;;;19.50;29.00;;;;;;5086591;28;47125;-26
2022/03/29 00:26:29;;;;;;;3.58;3.25;;;19.50;28.50;;;;;;5087170;28;47033;-17
2022/03/29 00:28:56;;;;;;;3.40;3.05;;;19.50;28.50;;;;;;5087162;28;46836;-18
2022/03/29 00:31:23;;;;;;;3.45;3.00;;;19.40;28.60;;;;;;5087145;28;46938;-17
2022/03/29 00:33:50;;;;;;;3.33;2.95;;;19.40;28.50;;;;;;5086642;28;47967;-16
2022/03/29 00:36:18;;;;;;;3.50;3.08;;;19.40;28.60;;;;;;5086715;28;47010;-26
2022/03/29 00:38:46;;;;;;;2.97;2.78;;;19.40;28.60;;;;;;5086728;28;46803;-16
2022/03/29 00:41:13;;;;;;;3.22;2.92;;;19.40;28.60;;;;;;5086884;28;46943;-17
2022/03/29 00:43:40;;;;;;;3.63;3.28;;;19.30;28.60;;;;;;5086387;28;47107;-26
2022/03/29 00:46:07;;;;;;;3.28;2.97;;;19.40;28.70;;;;;;5086923;28;47002;-26
2022/03/29 00:48:34;;;;;;;3.20;2.90;;;19.30;28.70;;;;;;5086630;28;46981;-18
2022/03/29 00:51:00;;;;;;;3.70;2.85;;;19.30;28.70;;;;;;5087007;28;46894;-26
2022/03/29 00:53:28;;;;;;;3.40;3.10;;;19.30;28.70;;;;;;5085635;28;48722;-26
2022/03/29 00:55:55;;;;;;;2.95;2.75;;;19.30;28.80;;;;;;5086436;28;47556;-26
2022/03/29 00:58:22;;;;;;;3.53;3.13;;;19.30;28.80;;;;;;5086468;28;46882;-16
2022/03/29 01:00:49;;;;;;;3.60;3.28;;;19.20;28.80;;;;;;5086812;28;47263;-16
2022/03/29 01:03:16;;;;;;;3.85;3.40;;;19.20;28.80;;;;;;5086296;28;46898;-25
2022/03/29 01:05:43;;;;;;;3.60;3.30;;;19.20;28.80;;;;;;5086465;28;47385;-18
2022/03/29 01:08:10;;;;;;;3.40;3.10;;;19.20;28.80;;;;;;5086525;28;46910;-25
2022/03/29 01:10:38;;;;;;;3.53;3.22;;;19.20;28.80;;;;;;5086452;28;47246;-18
2022/03/29 01:13:04;;;;;;;3.42;3.10;;;19.20;28.90;;;;;;5086405;28;48096;-17
2022/03/29 01:15:31;;;;;;;3.25;2.80;;;19.10;28.80;;;;;;5086228;28;46906;-17
2022/03/29 01:17:57;;;;;;;3.63;3.33;;;19.10;28.90;;;;;;5085844;28;46910;-26
2022/03/29 01:20:27;;;;;;;3.75;3.42;;;19.10;28.90;;;;;;5086521;28;46814;-18
2022/03/29 01:22:56;;;;;;;3.45;3.15;;;19.10;28.90;;;;;;5084618;27;48280;-26
2022/03/29 01:25:24;;;;;;;3.30;2.90;;;19.10;28.90;;;;;;5086079;28;46862;-17
2022/03/29 01:27:51;;;;;;;3.65;2.60;;;19.00;28.90;;;;;;5086303;28;47098;-17
2022/03/29 01:30:18;;;;;;;3.15;2.95;;;19.00;28.90;;;;;;5086394;28;47285;-17
2022/03/29 01:32:45;;;;;;;3.45;3.15;;;19.00;29.00;;;;;;5086073;28;47949;-17
2022/03/29 01:35:12;;;;;;;3.17;2.90;;;19.00;29.10;;;;;;5085707;28;46927;-17
2022/03/29 01:37:39;;;;;;;3.08;2.78;;;19.00;29.00;;;;;;5085813;28;46846;-26
2022/03/29 01:40:09;;;;;;;3.33;3.05;;;19.00;29.00;;;;;;5086247;28;47286;-17
2022/03/29 01:42:36;;;;;;;3.10;2.80;;;19.00;29.10;;;;;;5085466;28;48217;-18
2022/03/29 01:45:02;;;;;;;3.63;3.25;;;18.90;29.10;;;;;;5085664;28;46886;-25
2022/03/29 01:47:29;;;;;;;3.28;2.97;;;18.90;29.10;;;;;;5085434;28;47346;-16
2022/03/29 01:49:56;;;;;;;4.68;3.38;;;18.90;29.10;;;;;;5086143;28;46890;-26
2022/03/29 01:52:23;;;;;;;3.30;3.00;;;18.90;29.20;;;;;;5085637;28;48144;-17
2022/03/29 01:54:49;;;;;;;2.80;2.60;;;18.80;29.20;;;;;;5085778;28;47317;-26
2022/03/29 01:57:17;;;;;;;3.67;3.08;;;18.80;29.20;;;;;;5085677;28;46877;-26
2022/03/29 02:02:29;;;;;;;3.53;3.00;;;18.80;29.20;;;;;;5082913;28;47343;-16
2022/03/29 02:04:56;;;;;;;3.20;2.90;;;18.80;29.30;;;;;;5085395;28;47496;-17
2022/03/29 02:07:23;;;;;;;3.30;2.97;;;18.80;29.30;;;;;;5085410;28;46916;-16
2022/03/29 02:09:49;;;;;;;3.50;3.17;;;18.80;29.30;;;;;;5085913;28;46910;-17
2022/03/29 02:12:17;;;;;;;3.47;3.17;;;18.70;29.30;;;;;;5085131;28;47908;-26
2022/03/29 02:14:44;;;;;;;3.33;3.03;;;18.70;29.30;;;;;;5085541;28;46925;-26
2022/03/29 02:17:11;;;;;;;4.25;3.63;;;18.70;29.30;;;;;;5085313;28;47032;-26
2022/03/29 02:19:37;;;;;;;3.67;3.28;;;18.70;29.40;;;;;;5085518;28;47020;-26
2022/03/29 02:22:04;;;;;;;3.70;3.10;;;18.70;29.40;;;;;;5085214;28;49062;-17
2022/03/29 02:24:31;;;;;;;4.47;3.30;;;18.70;29.60;;;;;;5085047;28;47331;-26
2022/03/29 02:26:58;;;;;;;3.05;2.83;;;18.70;29.40;;;;;;5085395;28;46885;-17
2022/03/29 02:29:26;;;;;;;3.65;3.35;;;18.60;29.40;;;;;;5085290;28;47245;-16
2022/03/29 02:31:53;;;;;;;3.80;3.40;;;18.60;29.40;;;;;;5085299;28;49062;-16
2022/03/29 02:34:19;;;;;;;3.85;3.22;;;18.60;29.50;;;;;;5087323;27;48484;-17
2022/03/29 02:36:46;;;;;;;3.63;3.22;;;18.60;29.50;;;;;;5088983;28;46759;-17
2022/03/29 02:39:13;;;;;;;3.08;2.80;;;18.60;29.40;;;;;;5088580;28;46790;-26
2022/03/29 02:41:39;;;;;;;3.30;3.00;;;18.60;29.50;;;;;;5088556;28;49284;-16
2022/03/29 02:44:06;;;;;;;3.42;3.13;;;18.60;29.50;;;;;;5088613;28;47120;-17
2022/03/29 02:46:34;;;;;;;3.75;3.22;;;18.50;29.50;;;;;;5088748;28;46926;-17
2022/03/29 02:49:01;;;;;;;3.38;3.08;;;18.50;29.50;;;;;;5088554;28;46819;-16
2022/03/29 02:51:27;;;;;;;3.30;3.00;;;18.50;29.50;;;;;;5088541;28;49078;-25
2022/03/29 02:53:54;;;;;;;3.17;2.90;;;18.50;29.60;;;;;;5088098;28;46992;-16
2022/03/29 02:56:21;;;;;;;4.70;3.20;;;18.50;29.50;;;;;;5088649;28;46875;-25
2022/03/29 02:58:47;;;;;;;3.90;3.50;;;18.50;29.60;;;;;;5088573;28;47222;-17
2022/03/29 03:01:14;;;;;;;3.67;3.35;;;18.50;29.60;;;;;;5088334;28;48120;-16
2022/03/29 03:03:42;;;;;;;3.72;3.25;;;18.50;29.60;;;;;;5087973;28;46764;-16
2022/03/29 03:06:10;;;;;;;4.00;3.20;;;18.50;29.60;;;;;;5088274;28;46916;-17
2022/03/29 03:08:36;;;;;;;3.83;3.40;;;18.40;29.60;;;;;;5088711;28;46877;-16
2022/03/29 03:11:03;;;;;;;3.75;3.20;;;18.40;29.60;;;;;;5087870;28;46849;-16
2022/03/29 03:13:32;;;;;;;3.33;3.03;;;18.40;29.60;;;;;;5088186;28;46850;-16
2022/03/29 03:15:59;;;;;;;3.70;3.30;;;18.40;29.60;;;;;;5088421;28;46841;-26
2022/03/29 03:18:25;;;;;;;3.30;3.00;;;18.40;29.60;;;;;;5088382;28;46818;-26
2022/03/29 03:20:53;;;;;;;3.47;3.17;;;18.40;29.70;;;;;;5087979;28;47883;-17
2022/03/29 03:23:20;;;;;;;3.45;3.15;;;18.40;29.70;;;;;;5087976;28;48206;-17
2022/03/29 03:25:48;;;;;;;3.45;2.83;;;18.40;29.70;;;;;;5088036;28;46893;-17
2022/03/29 03:28:15;;;;;;;3.45;3.15;;;18.40;29.70;;;;;;5087996;28;47218;-25
2022/03/29 03:30:42;;;;;;;3.38;3.08;;;18.30;29.80;;;;;;5087961;28;46961;-16
2022/03/29 03:33:08;;;;;;;3.78;3.00;;;18.30;29.80;;;;;;5087438;28;47415;-16
2022/03/29 03:35:35;;;;;;;3.25;2.97;;;18.30;29.70;;;;;;5087782;28;46872;-25
2022/03/29 03:38:03;;;;;;;4.55;3.45;;;18.30;29.90;;;;;;5087942;28;46870;-26
2022/03/29 03:40:30;;;;;;;3.30;3.00;;;18.30;29.90;;;;;;5087550;28;47962;-16
2022/03/29 03:42:56;;;;;;;3.65;3.10;;;18.30;29.90;;;;;;5087493;28;47348;-18
2022/03/29 03:45:23;;;;;;;3.53;3.22;;;18.30;29.90;;;;;;5086786;27;46966;-26
2022/03/29 03:47:50;;;;;;;3.30;2.85;;;18.20;29.90;;;;;;5088043;28;46913;-26
2022/03/29 03:50:17;;;;;;;3.60;3.30;;;18.20;29.90;;;;;;5087650;28;49022;-26
2022/03/29 03:52:43;;;;;;;3.67;3.10;;;18.20;29.90;;;;;;5086997;28;47477;-26
2022/03/29 03:55:12;;;;;;;3.90;3.40;;;18.20;29.90;;;;;;5087815;28;46886;-17
2022/03/29 03:57:38;;;;;;;3.75;3.45;;;18.20;29.90;;;;;;5087674;28;47325;-17
2022/03/29 04:00:06;;;;;;;4.72;3.20;;;18.20;30.00;;;;;;5087279;28;47948;-17
2022/03/29 04:02:33;;;;;;;3.28;2.97;;;18.10;29.90;;;;;;5086985;28;47492;-26
2022/03/29 04:04:59;;;;;;;3.63;3.30;;;18.10;30.00;;;;;;5087530;28;46853;-17
2022/03/29 04:07:26;;;;;;;4.53;3.58;;;18.10;30.00;;;;;;5087315;28;46937;-26
2022/03/29 04:09:53;;;;;;;4.10;3.42;;;18.10;30.00;;;;;;5087370;28;46823;-26
2022/03/29 04:12:21;;;;;;;3.60;3.30;;;18.10;30.00;;;;;;5087586;28;47433;-16
2022/03/29 04:14:48;;;;;;;3.67;3.13;;;18.10;30.60;;;;;;5087457;28;46879;-26
2022/03/29 04:17:14;;;;;;;3.13;2.83;;;18.10;30.00;;;;;;5087156;28;47394;-26
2022/03/29 04:19:41;;;;;;;3.45;3.15;;;18.10;30.10;;;;;;5087267;28;47826;-17
2022/03/29 04:22:08;;;;;;;3.83;3.30;;;18.00;30.00;;;;;;5087193;28;46962;-26
2022/03/29 04:24:34;;;;;;;3.45;3.15;;;18.00;30.10;;;;;;5087176;28;46915;-17
2022/03/29 04:27:01;;;;;;;3.45;3.15;;;18.00;30.10;;;;;;5087020;28;46906;-26
2022/03/29 04:29:29;;;;;;;3.63;3.33;;;18.00;30.00;;;;;;5087037;28;48098;-16
2022/03/29 04:31:56;;;;;;;3.42;3.03;;;18.00;30.10;;;;;;5086826;28;46848;-17
2022/03/29 04:34:22;;;;;;;3.95;3.50;;;18.00;30.10;;;;;;5086714;28;46872;-17
2022/03/29 04:36:49;;;;;;;3.88;3.38;;;18.00;30.20;;;;;;5087170;28;47286;-17
2022/03/29 04:39:16;;;;;;;4.05;3.28;;;17.90;30.10;;;;;;5086750;28;46935;-20
2022/03/29 04:41:42;;;;;;;3.50;2.90;;;17.90;30.10;;;;;;5086886;28;47406;-26
2022/03/29 04:44:09;;;;;;;3.70;3.30;;;17.90;30.20;;;;;;5086556;28;46733;-26
2022/03/29 04:46:37;;;;;;;3.65;3.35;;;17.90;30.10;;;;;;5087168;28;46998;-17
2022/03/29 04:49:04;;;;;;;4.10;3.40;;;17.90;30.30;;;;;;5086300;28;47924;-26
2022/03/29 04:51:31;;;;;;;4.45;3.03;;;17.90;30.30;;;;;;5086753;28;46962;-26
2022/03/29 04:53:57;;;;;;;3.63;3.30;;;17.90;30.30;;;;;;5086429;28;46791;-17
2022/03/29 04:56:24;;;;;;;4.35;3.50;;;17.90;30.30;;;;;;5086333;27;46909;-26
2022/03/29 04:58:51;;;;;;;3.70;3.40;;;17.80;30.30;;;;;;5086456;28;48838;-16
2022/03/29 05:01:17;;;;;;;3.38;3.08;;;17.80;30.30;;;;;;5086626;28;46883;-17
2022/03/29 05:03:45;;;;;;;3.08;2.80;;;17.80;30.30;;;;;;5086510;28;47005;-17
2022/03/29 05:06:12;;;;;;;3.47;3.17;;;17.80;30.30;;;;;;5086699;28;46942;-26
2022/03/29 05:08:39;;;;;;;3.53;3.22;;;17.80;30.40;;;;;;5086184;28;49083;-26
2022/03/29 05:11:06;;;;;;;3.42;2.90;;;17.80;30.50;;;;;;5086500;28;46989;-16
2022/03/29 05:13:33;;;;;;;3.78;2.90;;;17.80;30.40;;;;;;5086004;28;46900;-26
2022/03/29 05:15:59;;;;;;;3.20;2.95;;;17.70;30.40;;;;;;5086528;28;47087;-17
2022/03/29 05:18:26;;;;;;;3.72;3.42;;;17.70;30.40;;;;;;5086055;28;46902;-26
2022/03/29 05:20:54;;;;;;;3.50;3.20;;;17.80;30.50;;;;;;5085856;28;46752;-26
2022/03/29 05:23:22;;;;;;;3.92;3.30;;;17.70;30.50;;;;;;5085929;28;47094;-26
2022/03/29 05:25:49;;;;;;;4.18;3.40;;;17.70;30.50;;;;;;5086373;28;47009;-26
2022/03/29 05:28:16;;;;;;;3.22;2.92;;;17.70;30.50;;;;;;5085951;28;48325;-17
2022/03/29 05:30:43;;;;;;;3.30;3.00;;;17.70;30.50;;;;;;5085842;28;47007;-27
2022/03/29 05:33:15;;;;;;;3.47;3.17;;;17.70;30.60;;;;;;5085117;28;46928;-18
2022/03/29 05:35:43;;;;;;;3.60;3.30;;;17.70;30.40;;;;;;5085652;28;46847;-27
2022/03/29 05:38:11;;;;;;;3.72;2.92;;;17.70;30.60;;;;;;5085504;28;48139;-27
2022/03/29 05:40:38;;;;;;;3.30;2.97;;;17.70;30.60;;;;;;5085985;28;46927;-26
2022/03/29 05:43:08;;;;;;;3.30;3.00;;;17.70;30.60;;;;;;5085858;28;46906;-17
2022/03/29 05:45:35;;;;;;;3.72;3.40;;;17.70;31.10;;;;;;5085630;28;46976;-17
2022/03/29 05:50:46;;;;;;;3.72;3.33;;;17.60;30.60;;;;;;5083109;28;46934;-26
2022/03/29 05:53:14;;;;;;;3.97;3.55;;;17.60;30.70;;;;;;5084832;28;46939;-27
2022/03/29 05:55:42;;;;;;;3.65;3.35;;;17.60;30.70;;;;;;5086193;28;46942;-18
2022/03/29 05:58:09;;;;;;;4.32;3.20;;;17.60;30.60;;;;;;5085485;28;48062;-27
2022/03/29 06:00:35;;;;;;;3.38;3.08;;;17.60;30.70;;;;;;5085285;28;47105;-27
2022/03/29 06:03:02;;;;;;;3.65;3.35;;;17.60;30.70;;;;;;5085655;28;46852;-27
2022/03/29 06:05:29;;;;;;;3.85;3.38;;;17.60;30.80;;;;;;5085762;28;46862;-26
2022/03/29 06:07:56;;;;;;;4.63;3.17;;;17.60;30.80;;;;;;5084258;28;48016;-27
2022/03/29 06:10:25;;;;;;;3.95;3.05;;;17.60;30.80;;;;;;5085570;28;46981;-27
2022/03/29 06:12:52;;;;;;;3.80;3.40;;;17.50;30.80;;;;;;5085189;28;47044;-17
2022/03/29 06:15:19;;;;;;;3.50;3.20;;;17.60;30.80;;;;;;5085809;28;46866;-26
2022/03/29 06:17:45;;;;;;;3.78;3.20;;;17.50;30.90;;;;;;5084960;28;47426;-17
2022/03/29 06:20:13;;;;;;;3.80;3.50;;;17.50;30.80;;;;;;5084559;28;46965;-26
2022/03/29 06:22:42;;;;;;;5.82;3.50;;;17.50;30.90;;;;;;5084242;28;47020;-18
2022/03/29 06:25:10;;;;;;;3.90;3.30;;;17.50;30.90;;;;;;5082450;28;47053;-27
2022/03/29 06:27:38;;;;;;;3.70;3.30;;;17.50;31.00;;;;;;5084328;28;48731;-18
2022/03/29 06:30:06;;;;;;;4.13;3.42;;;17.50;30.90;;;;;;5084534;28;46834;-27
2022/03/29 06:32:34;;;;;;;3.08;2.70;;;17.40;30.90;;;;;;5084573;28;47122;-18
2022/03/29 06:35:01;;;;;;;4.35;3.10;;;17.40;30.70;;;;;;5084561;28;47170;-28
2022/03/29 06:37:29;;;;;;;4.15;3.35;;;17.40;31.00;;;;;;5084277;28;47010;-28
2022/03/29 06:39:56;;;;;;;3.63;3.13;;;17.40;31.10;;;;;;5081923;28;47431;-18
2022/03/29 06:42:22;;;;;;;3.42;3.13;;;17.40;31.10;;;;;;5084091;28;46911;-28
2022/03/29 06:44:51;;;;;;;3.75;3.40;;;17.40;31.20;;;;;;5084874;28;46926;-27
2022/03/29 06:47:18;;;;;;;3.72;3.40;;;17.40;31.10;;;;;;5083560;27;48535;-19
2022/03/29 06:49:45;;;;;;;3.42;3.03;;;17.40;31.10;;;;;;5084694;28;46825;-27
2022/03/29 06:52:11;;;;;;;3.85;2.90;;;17.40;31.20;;;;;;5085080;28;46995;-17
2022/03/29 06:54:38;;;;;;;3.42;3.13;;;17.40;31.10;;;;;;5085166;28;46978;-18
2022/03/29 06:57:05;;;;;;;4.25;3.10;;;17.40;31.10;;;;;;5084857;28;49117;-27
2022/03/29 06:59:32;;;;;;;3.50;3.20;;;17.50;31.10;;;;;;5085145;28;46936;-27
2022/03/29 07:02:01;;;;;;;5.45;3.30;;;17.50;31.10;;;;;;5084992;28;46736;-28
2022/03/29 07:04:28;;;;;;;3.27;2.90;;;17.50;31.00;;;;;;5084729;28;46977;-19
2022/03/29 07:06:55;;;;;;;3.35;3.05;;;17.50;31.00;;;;;;5084747;28;47883;-27
2022/03/29 07:12:06;;;;;;;3.45;3.15;;;17.60;31.00;;;;;;5082078;28;46952;-17
2022/03/29 07:14:33;;;;;;;3.88;3.40;;;17.60;31.00;;;;;;5084994;28;46858;-27
2022/03/29 07:17:05;;;;;;;5.30;2.95;;;17.60;31.00;;;;;;5084607;28;48260;-24
2022/03/29 07:19:32;;;;;;;5.50;3.30;;;17.60;31.00;;;;;;5084464;27;46912;-27
2022/03/29 07:21:58;;;;;;;3.95;3.40;;;17.60;31.00;;;;;;5087602;28;47057;-27
2022/03/29 07:24:25;;;;;;;3.40;3.10;;;17.60;31.10;;;;;;5088327;28;46907;-27
2022/03/29 07:26:52;;;;;;;5.55;3.25;;;17.60;31.10;;;;;;5087995;28;46895;-27
2022/03/29 07:29:19;;;;;;;3.50;2.97;;;17.60;31.00;;;;;;5087835;28;46831;-26
2022/03/29 07:31:46;;;;;;;3.70;3.40;;;17.70;30.90;;;;;;5087660;28;47027;-26
2022/03/29 07:34:14;;;;;;;4.15;3.33;;;17.70;30.90;;;;;;5087645;28;46821;-27
2022/03/29 07:36:41;;;;;;;4.38;3.10;;;17.70;30.80;;;;;;5086319;28;48379;-18
2022/03/29 07:39:08;;;;;;;3.80;2.92;;;17.70;30.80;;;;;;5086812;28;47219;-17
2022/03/29 07:41:35;;;;;;;3.60;3.30;;;17.70;30.70;;;;;;5087461;28;47014;-26
2022/03/29 07:44:02;;;;;;;3.00;2.75;;;17.70;30.80;;;;;;5087803;28;46864;-27
2022/03/29 07:46:29;;;;;;;3.47;2.97;;;17.80;30.70;;;;;;5087254;28;47968;-17
2022/03/29 07:48:55;;;;;;;3.45;3.13;;;17.80;30.80;;;;;;5087600;28;46832;-18
2022/03/29 07:51:23;;;;;;;3.30;3.00;;;17.80;30.70;;;;;;5087646;28;46863;-27
2022/03/29 07:53:51;;;;;;;3.50;3.20;;;17.80;30.70;;;;;;5087166;28;46913;-27
2022/03/29 07:56:17;;;;;;;3.70;3.33;;;17.80;30.70;;;;;;5087286;28;46959;-17
2022/03/29 07:58:44;;;;;;;3.40;3.10;;;17.90;30.70;;;;;;5087031;28;46912;-18
2022/03/29 08:01:11;;;;;;;3.13;2.83;;;17.90;30.70;;;;;;5087648;28;46788;-26
2022/03/29 08:03:37;;;;;;;3.92;3.30;;;17.90;30.60;;;;;;5087310;28;46910;-27
2022/03/29 08:06:05;;;;;;;4.53;3.40;;;18.00;30.60;;;;;;5087102;28;47827;-27
2022/03/29 08:08:34;;;;;;;3.67;3.35;;;18.00;30.60;;;;;;5087075;28;46967;-17
2022/03/29 08:11:01;;;;;;;3.65;3.13;;;18.00;30.50;;;;;;5086893;28;46866;-17
2022/03/29 08:13:28;;;;;;;3.30;3.00;;;18.00;30.50;;;;;;5087453;28;46889;-17
2022/03/29 08:15:58;;;;;;;3.97;3.40;;;18.10;30.50;;;;;;5087082;28;49331;-27
2022/03/29 08:18:25;;;;;;;5.53;3.67;;;18.10;30.50;;;;;;5086863;28;46827;-16
2022/03/29 08:20:52;;;;;;;3.40;3.10;;;18.10;30.40;;;;;;5087336;28;46812;-26
2022/03/29 08:23:19;;;;;;;3.40;3.10;;;18.10;30.40;;;;;;5087164;28;47124;-16
2022/03/29 08:25:47;;;;;;;3.53;3.08;;;18.10;30.30;;;;;;5087104;28;48145;-26
2022/03/29 08:28:14;;;;;;;3.60;3.30;;;18.20;30.30;;;;;;5086945;28;46842;-18
2022/03/29 08:30:42;;;;;;;3.42;3.13;;;18.20;30.30;;;;;;5086832;28;46819;-26
2022/03/29 08:33:09;;;;;;;5.55;3.63;;;18.20;30.30;;;;;;5086064;28;47178;-26
2022/03/29 08:35:37;;;;;;;4.00;3.60;;;18.30;30.40;;;;;;5090413;27;47843;-17
2022/03/29 08:38:04;;;;;;;3.50;3.20;;;18.30;30.30;;;;;;5105616;27;46963;-27
2022/03/29 08:40:32;;;;;;;3.50;3.20;;;18.30;30.20;;;;;;5104417;27;46932;-26
2022/03/29 08:43:00;;;;;;;4.15;3.55;;;18.30;30.20;;;;;;5087473;27;47213;-26
2022/03/29 08:45:28;;;;;;;4.97;3.40;;;18.40;30.30;;;;;;5100285;27;47008;-18
2022/03/29 08:47:56;;;;;;;4.22;2.90;;;18.40;30.20;;;;;;5090286;27;46976;-17
2022/03/29 08:50:24;;;;;;;4.45;3.58;;;18.40;30.10;;;;;;5088034;27;47322;-27
2022/03/29 08:52:51;;;;;;;4.95;3.15;;;18.40;30.10;;;;;;5102588;27;47239;-27
2022/03/29 08:55:18;;;;;;;4.78;3.17;;;18.40;30.10;;;;;;5092520;27;48030;-18
2022/03/29 08:57:45;;;;;;;4.72;3.30;;;18.40;30.10;;;;;;5094710;27;46949;-27
2022/03/29 09:00:13;;;;;;;5.22;3.10;;;18.50;30.20;;;;;;5106828;27;46916;-18
2022/03/29 09:02:40;;;;;;;4.10;2.95;;;18.50;30.10;;;;;;5090911;27;47329;-27
2022/03/29 09:05:09;;;;;;;3.72;3.33;;;18.50;30.10;;;;;;5085418;28;48211;-17
2022/03/29 09:07:51;;;;;;;4.47;3.38;;;18.50;30.10;;;;;;5090123;27;46853;-26
2022/03/29 09:10:18;;;;;;;3.55;3.20;;;18.50;30.00;;;;;;5093457;27;46923;-18
2022/03/29 09:12:45;;;;;;;3.85;3.00;;;18.60;30.00;;;;;;5082066;27;46847;-27
2022/03/29 09:15:14;;;;;;;3.30;3.00;;;18.60;30.00;;;;;;5084953;27;46962;-27
2022/03/29 09:17:42;;;;;;;3.33;2.92;;;18.60;30.00;;;;;;5084056;27;47393;-18
2022/03/29 09:20:11;;;;;;;3.50;3.00;;;18.60;30.10;;;;;;5075840;27;47074;-27
2022/03/29 09:22:43;;;;;;;4.78;3.53;;;18.70;30.20;;;;;;5078719;27;47168;-28
2022/03/29 09:25:13;;;;;;;4.47;3.55;;;18.60;30.10;;;;;;5085645;27;47973;-18
2022/03/29 09:27:51;;;;;;;3.70;3.40;;;18.70;30.00;;;;;;5083516;27;47194;-18
2022/03/29 09:30:19;;;;;;;4.63;3.60;;;18.70;30.00;;;;;;5083887;27;47022;-18
2022/03/29 09:33:02;;;;;;;3.78;3.45;;;18.70;30.00;;;;;;5085893;27;46946;-18
2022/03/29 09:35:30;;;;;;;3.92;3.55;;;18.70;30.10;;;;;;5085871;27;47855;-18
2022/03/29 09:37:57;;;;;;;3.50;3.10;;;18.80;30.00;;;;;;5091339;27;46795;-27
2022/03/29 09:40:34;;;;;;;3.45;3.15;;;18.80;30.00;;;;;;5089957;27;46800;-19
2022/03/29 09:43:06;;;;;;;4.07;3.65;;;18.80;30.00;;;;;;5095234;27;47003;-18
2022/03/29 09:45:42;;;;;;;4.20;3.42;;;18.80;30.00;;;;;;5084727;28;48126;-18
2022/03/29 09:48:26;;;;;;;4.10;3.70;;;18.80;30.00;;;;;;5084459;28;47399;-27
2022/03/29 09:50:57;;;;;;;4.22;3.35;;;18.80;30.00;;;;;;5084949;28;46834;-27
2022/03/29 09:53:41;;;;;;;5.10;3.17;;;18.90;30.00;;;;;;5085457;28;47314;-18
2022/03/29 09:56:10;;;;;;;3.85;3.55;;;18.90;30.00;;;;;;5085067;28;47951;-27
2022/03/29 09:58:36;;;;;;;3.97;3.60;;;18.90;30.00;;;;;;5085264;28;47441;-27
2022/03/29 10:01:05;;;;;;;4.50;3.70;;;19.00;30.00;;;;;;5085475;28;46877;-18
2022/03/29 10:03:33;;;;;;;4.57;3.78;;;19.00;30.00;;;;;;5085600;28;47227;-18
2022/03/29 10:06:03;;;;;;;3.67;3.22;;;19.00;29.90;;;;;;5085489;28;47829;-18
2022/03/29 10:11:17;;;;;;;4.22;3.42;;;19.00;30.00;;;;;;5082811;28;46882;-19
2022/03/29 10:13:45;;;;;;;3.70;3.28;;;19.10;30.00;;;;;;5085478;28;47126;-27
2022/03/29 10:16:14;;;;;;;4.20;3.45;;;19.10;30.00;;;;;;5085585;28;46813;-19
2022/03/29 10:18:41;;;;;;;4.43;3.63;;;19.10;30.00;;;;;;5085305;28;46976;-18
2022/03/29 10:21:10;;;;;;;5.68;3.65;;;19.10;30.00;;;;;;5085206;28;46908;-27
2022/03/29 10:23:37;;;;;;;4.90;3.50;;;19.10;30.00;;;;;;5085043;28;47298;-18
2022/03/29 10:26:03;;;;;;;6.10;3.78;;;19.10;30.00;;;;;;5084958;28;47889;-18
2022/03/29 10:28:30;;;;;;;7.47;3.83;;;19.10;30.00;;;;;;5085272;28;47173;-27
2022/03/29 10:30:57;;;;;;;5.38;3.58;;;19.20;30.00;;;;;;5085062;28;46820;-27
2022/03/29 10:33:26;;;;;;;4.55;3.72;;;19.20;30.00;;;;;;5084986;28;47037;-28
2022/03/29 10:36:07;;;;;;;5.13;3.50;;;19.20;30.10;;;;;;5084926;28;47887;-19
2022/03/29 10:38:57;;;;;;;4.28;3.50;;;19.20;30.00;;;;;;5084744;28;47282;-28
2022/03/29 10:41:50;;;;;;;5.35;3.35;;;19.30;30.00;;;;;;5085391;28;46906;-19
2022/03/29 10:44:16;;;;;;;4.93;3.40;;;19.30;30.00;;;;;;5085332;28;46893;-19
2022/03/29 10:46:47;;;;;;;5.47;3.78;;;19.30;30.00;;;;;;5084748;28;48808;-27
2022/03/29 10:49:20;;;;;;;5.88;3.70;;;19.30;30.00;;;;;;5084971;28;47446;-27
2022/03/29 10:51:47;;;;;;;3.80;3.50;;;19.30;30.00;;;;;;5085178;28;46863;-18
2022/03/29 10:54:28;;;;;;;4.90;4.10;;;19.30;30.00;;;;;;5085507;27;47367;-27
2022/03/29 10:56:59;;;;;;;4.03;3.65;;;19.40;30.00;;;;;;5088231;28;47941;-27
2022/03/29 10:59:26;;;;;;;5.30;3.83;;;19.40;30.00;;;;;;5088162;28;46978;-27
2022/03/29 11:02:10;;;;;;;4.22;3.40;;;19.40;30.00;;;;;;5088492;28;46858;-27
2022/03/29 11:04:38;;;;;;;4.63;4.20;;;19.40;30.00;;;;;;5088679;28;46892;-28
2022/03/29 11:07:12;;;;;;;4.28;3.40;;;19.40;29.90;;;;;;5088434;28;48157;-18
2022/03/29 11:09:40;;;;;;;10.60;4.50;;;19.40;30.00;;;;;;5088022;28;47394;-27
2022/03/29 11:12:07;;;;;;;9.15;4.28;;;19.40;30.00;;;;;;5087988;28;46950;-18
2022/03/29 11:14:40;;;;;;;6.43;3.70;;;19.50;30.00;;;;;;5088455;28;46897;-27
2022/03/29 11:17:40;;;;;;;8.20;4.05;;;19.50;30.30;;;;;;5087910;28;47939;-18
2022/03/29 11:20:31;;;;;;;10.00;3.92;;;19.50;30.00;;;;;;5071655;28;48099;-27
2022/03/29 11:22:59;;;;;;;6.78;3.70;;;19.50;29.90;;;;;;5087760;28;46901;-19
2022/03/29 11:25:26;;;;;;;6.78;4.15;;;19.60;29.90;;;;;;5087991;28;46935;-19
2022/03/29 11:27:53;;;;;;;6.68;4.13;;;19.60;30.00;;;;;;5087581;28;48823;-17
2022/03/29 11:30:20;;;;;;;8.77;4.13;;;19.60;29.80;;;;;;5087999;28;47539;-19
2022/03/29 11:32:47;;;;;;;7.05;4.18;;;19.70;29.90;;;;;;5087958;28;46889;-27
2022/03/29 11:35:15;;;;;;;6.13;4.20;;;19.60;29.80;;;;;;5087931;28;47020;-23
2022/03/29 11:37:44;;;;;;;4.75;4.00;;;19.60;29.80;;;;;;5087751;28;47078;-18
2022/03/29 11:40:12;;;;;;;4.47;3.67;;;19.60;29.80;;;;;;5087664;28;47038;-17
2022/03/29 11:42:45;;;;;;;7.05;4.63;;;19.70;29.90;;;;;;5087774;28;46810;-27
2022/03/29 11:45:12;;;;;;;5.35;3.90;;;19.70;30.00;;;;;;5088166;28;46894;-28
2022/03/29 11:47:39;;;;;;;7.50;4.43;;;19.70;30.00;;;;;;5087492;28;46907;-27
2022/03/29 11:50:06;;;;;;;6.95;4.35;;;19.70;30.00;;;;;;5087678;28;47002;-19
2022/03/29 11:52:33;;;;;;;9.32;4.38;;;19.70;29.90;;;;;;5087435;28;46859;-27
2022/03/29 11:55:02;;;;;;;6.90;4.40;;;19.70;30.00;;;;;;5088083;28;47099;-19
2022/03/29 11:57:30;;;;;;;7.82;4.00;;;19.70;30.00;;;;;;5087271;28;47874;-27
2022/03/29 11:59:57;;;;;;;4.43;3.53;;;19.80;29.90;;;;;;5087567;28;46817;-27
2022/03/29 12:02:25;;;;;;;6.68;3.88;;;19.80;30.00;;;;;;5087348;28;46919;-26
2022/03/29 12:04:52;;;;;;;6.95;4.25;;;19.80;29.90;;;;;;5087865;28;46933;-27
2022/03/29 12:07:34;;;;;;;8.88;4.15;;;19.80;29.90;;;;;;5086024;27;46924;-27
2022/03/29 12:10:02;;;;;;;6.68;4.20;;;19.80;29.90;;;;;;5086687;28;46826;-18
2022/03/29 12:12:28;;;;;;;6.07;4.07;;;19.80;29.90;;;;;;5087043;28;46846;-27
2022/03/29 12:15:02;;;;;;;7.72;4.18;;;19.80;29.90;;;;;;5087735;28;47151;-27
2022/03/29 12:17:29;;;;;;;8.13;4.00;;;19.80;30.00;;;;;;5087115;28;47630;-19
2022/03/29 12:19:57;;;;;;;5.60;4.13;;;19.80;29.90;;;;;;5087233;28;46897;-27
2022/03/29 12:22:26;;;;;;;7.65;4.50;;;19.90;30.00;;;;;;5087140;28;46871;-27
2022/03/29 12:24:55;;;;;;;7.07;4.40;;;19.80;29.90;;;;;;5087202;28;47236;-27
2022/03/29 12:27:23;;;;;;;7.03;4.40;;;19.90;29.90;;;;;;5086935;28;48890;-27
2022/03/29 12:29:52;;;;;;;7.32;4.45;;;19.90;29.90;;;;;;5087169;28;46799;-18
2022/03/29 12:32:19;;;;;;;6.85;4.32;;;19.90;29.90;;;;;;5086902;28;46857;-18
2022/03/29 12:34:45;;;;;;;6.40;4.50;;;20.00;30.00;;;;;;5087428;28;46826;-18
2022/03/29 12:37:14;;;;;;;9.27;4.13;;;20.00;29.90;;;;;;5086926;28;47946;-18
2022/03/29 12:39:42;;;;;;;13.32;4.05;;;20.00;29.90;;;;;;5087044;28;47003;-18
2022/03/29 12:42:09;;;;;;;8.27;4.50;;;20.00;29.80;;;;;;5087018;28;46986;-27
2022/03/29 12:44:43;;;;;;;5.00;4.50;;;20.00;29.80;;;;;;5087186;28;47276;-27
2022/03/29 12:47:10;;;;;;;9.52;4.25;;;20.00;29.80;;;;;;5086840;28;48159;-27
2022/03/29 12:49:37;;;;;;;5.68;4.30;;;20.10;29.80;;;;;;5086558;28;46938;-19
2022/03/29 12:52:06;;;;;;;7.82;4.63;;;20.10;29.80;;;;;;5086943;28;46810;-18
2022/03/29 12:54:34;;;;;;;8.88;4.03;;;20.10;29.80;;;;;;5086705;28;46863;-27
2022/03/29 12:57:01;;;;;;;9.75;4.45;;;20.10;29.80;;;;;;5086635;28;47113;-27
2022/03/29 12:59:31;;;;;;;7.45;4.10;;;20.10;29.80;;;;;;5086621;28;46890;-19
2022/03/29 13:02:18;;;;;;;4.70;3.90;;;20.10;29.80;;;;;;5086424;28;46870;-27